createdAt,value
2022-12-18T00:00:06.181Z,99909.65
2022-12-18T00:02:34.229Z,99916.15
2022-12-18T00:05:01.965Z,99917.86
2022-12-18T00:07:29.538Z,99922.42
2022-12-18T00:09:57.150Z,99923.09
2022-12-18T00:12:24.688Z,99925.84
2022-12-18T00:14:52.331Z,99928.64
2022-12-18T00:17:19.928Z,99933.83
2022-12-18T00:19:48.241Z,99934.13
2022-12-18T00:22:16.761Z,99935.96
2022-12-18T00:24:44.372Z,99938.17
2022-12-18T00:27:11.898Z,99942.22
2022-12-18T00:29:39.453Z,99936.23
2022-12-18T00:32:06.960Z,99939.77
2022-12-18T00:34:34.555Z,99946.31
2022-12-18T00:37:02.109Z,99944.46
2022-12-18T00:39:30.299Z,99944.06
2022-12-18T00:41:57.889Z,99943.91
2022-12-18T00:44:25.481Z,99946.39
2022-12-18T00:46:53.018Z,99948.35
2022-12-18T00:49:20.916Z,99950.03
2022-12-18T00:51:49.649Z,99956.10
2022-12-18T00:54:17.634Z,99959.20
2022-12-18T00:56:49.079Z,99962.44
2022-12-18T00:59:18.750Z,99966.74
2022-12-18T01:01:47.934Z,99968.59
2022-12-18T01:04:16.570Z,99972.86
2022-12-18T01:06:44.586Z,99976.13
2022-12-18T01:09:12.374Z,99981.16
2022-12-18T01:11:40.702Z,99982.15
2022-12-18T01:14:08.325Z,99984.78
2022-12-18T01:16:36.019Z,99986.96
2022-12-18T01:19:03.778Z,99990.61
2022-12-18T01:21:31.521Z,99988.59
2022-12-18T01:23:59.481Z,99995.30
2022-12-18T01:26:27.820Z,99997.01
2022-12-18T01:28:57.339Z,99996.70
2022-12-18T01:31:28.363Z,99998.42
2022-12-18T01:33:57.394Z,99999.41
2022-12-18T01:36:27.771Z,100000.08
2022-12-18T01:38:56.579Z,99994.89
2022-12-18T01:41:26.893Z,99993.20
2022-12-18T01:43:59.387Z,99993.81
2022-12-18T01:46:28.181Z,99994.59
2022-12-18T01:49:02.078Z,99996.06
2022-12-18T01:51:31.742Z,100000.09
2022-12-18T01:54:00.301Z,100002.94
2022-12-18T01:56:28.055Z,100003.63
2022-12-18T01:59:06.145Z,100004.89
2022-12-18T02:01:36.356Z,100008.21
2022-12-18T02:04:24.808Z,100011.71
2022-12-18T02:07:01.572Z,100014.80
2022-12-18T02:09:38.096Z,100020.75
2022-12-18T02:12:16.784Z,100031.21
2022-12-18T02:14:56.531Z,100036.23
2022-12-18T02:17:35.446Z,100044.64
2022-12-18T02:20:14.140Z,100048.83
2022-12-18T02:22:59.699Z,100054.77
2022-12-18T02:25:33.702Z,100056.48
2022-12-18T02:28:06.205Z,100057.29
2022-12-18T02:30:37.153Z,100060.98
2022-12-18T02:33:09.499Z,100065.50
2022-12-18T02:35:38.403Z,100067.63
2022-12-18T02:38:07.380Z,100065.57
2022-12-18T02:40:36.847Z,100067.16
2022-12-18T02:43:13.793Z,100065.14
2022-12-18T02:45:54.263Z,100065.30
2022-12-18T02:48:27.082Z,100071.50
2022-12-18T02:51:15.429Z,100077.93
2022-12-18T02:53:59.027Z,100086.39
2022-12-18T02:56:36.736Z,100088.50
2022-12-18T02:59:17.152Z,100088.27
2022-12-18T03:02:00.325Z,100095.02
2022-12-18T03:04:31.932Z,100095.91
2022-12-18T03:07:06.724Z,100097.92
2022-12-18T03:09:39.345Z,100104.20
2022-12-18T03:12:35.555Z,100112.23
2022-12-18T03:15:22.449Z,100115.77
2022-12-18T03:17:56.126Z,100117.77
2022-12-18T03:20:26.911Z,100118.30
2022-12-18T03:23:03.486Z,100113.91
2022-12-18T03:25:33.159Z,100110.71
2022-12-18T03:28:03.497Z,100108.60
2022-12-18T03:30:34.946Z,100106.82
2022-12-18T03:33:09.785Z,100110.52
2022-12-18T03:35:42.871Z,100110.13
2022-12-18T03:38:11.797Z,100114.33
2022-12-18T03:40:48.840Z,100113.40
2022-12-18T03:43:38.652Z,100113.52
2022-12-18T03:46:14.641Z,100120.42
2022-12-18T03:48:53.811Z,100127.13
2022-12-18T03:51:29.469Z,100128.97
2022-12-18T03:54:01.295Z,100130.52
2022-12-18T03:56:32.945Z,100131.27
2022-12-18T03:59:02.492Z,100134.83
2022-12-18T04:01:38.431Z,100139.35
2022-12-18T04:04:07.866Z,100144.84
2022-12-18T04:06:36.499Z,100147.65
2022-12-18T04:09:06.449Z,100150.33
2022-12-18T04:11:34.431Z,100153.98
2022-12-18T04:14:05.971Z,100151.36
2022-12-18T04:16:35.111Z,100151.41
2022-12-18T04:19:02.889Z,100153.23
2022-12-18T04:21:31.000Z,100156.04
2022-12-18T04:23:58.894Z,100159.39
2022-12-18T04:26:26.538Z,100162.89
2022-12-18T04:28:54.075Z,100165.67
2022-12-18T04:31:21.787Z,100166.48
2022-12-18T04:33:49.471Z,100172.26
2022-12-18T04:36:17.468Z,100174.83
2022-12-18T04:38:45.348Z,100178.38
2022-12-18T04:41:12.907Z,100182.10
2022-12-18T04:43:40.816Z,100189.05
2022-12-18T04:46:09.782Z,100195.66
2022-12-18T04:48:38.282Z,100200.27
2022-12-18T04:51:07.072Z,100197.59
2022-12-18T04:53:34.977Z,100207.09
2022-12-18T04:56:07.524Z,100202.54
2022-12-18T04:58:36.315Z,100204.98
2022-12-18T05:01:04.806Z,100207.06
2022-12-18T05:03:32.580Z,100209.83
2022-12-18T05:06:00.384Z,100214.96
2022-12-18T05:08:27.976Z,100215.84
2022-12-18T05:11:10.585Z,100221.31
2022-12-18T05:13:39.505Z,100219.13
2022-12-18T05:16:08.817Z,100219.58
2022-12-18T05:18:37.664Z,100227.06
2022-12-18T05:21:05.531Z,100228.54
2022-12-18T05:23:33.326Z,100230.80
2022-12-18T05:26:03.301Z,100235.88
2022-12-18T05:28:32.952Z,100240.90
2022-12-18T05:31:03.045Z,100240.95
2022-12-18T05:33:34.002Z,100238.81
2022-12-18T05:36:03.779Z,100241.73
2022-12-18T05:38:33.080Z,100244.00
2022-12-18T05:41:01.170Z,100249.26
2022-12-18T05:43:29.614Z,100247.90
2022-12-18T05:45:57.665Z,100247.89
2022-12-18T05:48:25.272Z,100247.01
2022-12-18T05:50:53.053Z,100248.83
2022-12-18T05:53:21.440Z,100252.00
2022-12-18T05:55:49.241Z,100255.13
2022-12-18T05:58:17.420Z,100255.55
2022-12-18T06:00:46.761Z,100255.75
2022-12-18T06:03:15.054Z,100257.51
2022-12-18T06:05:45.453Z,100260.21
2022-12-18T06:08:14.241Z,100262.02
2022-12-18T06:10:42.719Z,100264.78
2022-12-18T06:13:10.594Z,100268.88
2022-12-18T06:15:38.580Z,100267.86
2022-12-18T06:18:06.253Z,100270.56
2022-12-18T06:20:34.288Z,100272.20
2022-12-18T06:23:01.975Z,100275.27
2022-12-18T06:25:29.749Z,100274.47
2022-12-18T06:27:57.556Z,100275.95
2022-12-18T06:30:25.747Z,100281.70
2022-12-18T06:32:56.750Z,100286.69
2022-12-18T06:35:24.989Z,100295.89
2022-12-18T06:37:52.639Z,100298.02
2022-12-18T06:40:20.712Z,100298.06
2022-12-18T06:42:48.451Z,100305.45
2022-12-18T06:45:16.425Z,100310.88
2022-12-18T06:47:44.355Z,100311.80
2022-12-18T06:50:12.551Z,100313.54
2022-12-18T06:52:40.700Z,100317.27
2022-12-18T06:55:09.004Z,100320.48
2022-12-18T06:57:37.142Z,100325.58
2022-12-18T07:00:07.020Z,100326.38
2022-12-18T07:02:35.052Z,100332.09
2022-12-18T07:05:07.602Z,100334.76
2022-12-18T07:07:38.487Z,100342.17
2022-12-18T07:10:06.341Z,100343.54
2022-12-18T07:12:34.103Z,100346.55
2022-12-18T07:15:02.249Z,100347.49
2022-12-18T07:17:29.983Z,100352.34
2022-12-18T07:19:57.799Z,100360.67
2022-12-18T07:22:28.797Z,100359.07
2022-12-18T07:24:56.460Z,100361.83
2022-12-18T07:27:24.284Z,100364.52
2022-12-18T07:29:52.193Z,100370.55
2022-12-18T07:32:19.832Z,100380.74
2022-12-18T07:34:47.622Z,100384.31
2022-12-18T07:37:15.522Z,100385.23
2022-12-18T07:39:43.288Z,100387.02
2022-12-18T07:42:11.030Z,100388.90
2022-12-18T07:44:38.895Z,100391.09
2022-12-18T07:47:10.498Z,100389.71
2022-12-18T07:49:40.198Z,100388.58
2022-12-18T07:52:08.105Z,100381.30
2022-12-18T07:54:36.089Z,100384.56
2022-12-18T07:57:07.443Z,100386.94
2022-12-18T07:59:40.497Z,100393.01
2022-12-18T08:02:08.533Z,100388.61
2022-12-18T08:04:36.512Z,100386.65
2022-12-18T08:07:04.497Z,100387.18
2022-12-18T08:09:32.531Z,100389.77
2022-12-18T08:12:00.369Z,100390.95
2022-12-18T08:14:27.998Z,100389.80
2022-12-18T08:16:55.679Z,100392.64
2022-12-18T08:19:23.399Z,100392.90
2022-12-18T08:21:51.185Z,100396.59
2022-12-18T08:24:18.953Z,100394.95
2022-12-18T08:27:06.686Z,100396.92
2022-12-18T08:29:34.689Z,100393.95
2022-12-18T08:32:02.683Z,100398.66
2022-12-18T08:34:30.621Z,100396.23
2022-12-18T08:36:58.818Z,100391.48
2022-12-18T08:39:26.660Z,100395.00
2022-12-18T08:41:54.336Z,100404.15
2022-12-18T08:44:21.896Z,100410.32
2022-12-18T08:46:50.326Z,100416.48
2022-12-18T08:49:18.228Z,100423.88
2022-12-18T08:51:46.035Z,100426.25
2022-12-18T08:54:13.723Z,100431.45
2022-12-18T08:56:41.291Z,100431.06
2022-12-18T08:59:13.136Z,100431.80
2022-12-18T09:01:46.270Z,100436.13
2022-12-18T09:04:14.268Z,100442.46
2022-12-18T09:06:41.963Z,100442.39
2022-12-18T09:09:10.609Z,100444.79
2022-12-18T09:11:38.485Z,100445.42
2022-12-18T09:14:06.066Z,100445.63
2022-12-18T09:16:34.524Z,100449.85
2022-12-18T09:19:04.824Z,100453.34
2022-12-18T09:21:37.084Z,100450.31
2022-12-18T09:24:08.652Z,100452.25
2022-12-18T09:26:37.040Z,100458.35
2022-12-18T09:29:05.266Z,100458.24
2022-12-18T09:31:33.035Z,100458.30
2022-12-18T09:34:00.620Z,100456.48
2022-12-18T09:36:28.594Z,100458.06
2022-12-18T09:38:56.221Z,100460.41
2022-12-18T09:41:46.193Z,100459.91
2022-12-18T09:44:32.132Z,100457.15
2022-12-18T09:47:18.284Z,100466.04
2022-12-18T09:49:50.327Z,100467.51
2022-12-18T09:52:42.999Z,100466.82
2022-12-18T09:55:32.200Z,100467.98
2022-12-18T09:58:10.648Z,100469.02
2022-12-18T10:00:38.628Z,100464.43
2022-12-18T10:03:16.905Z,100469.61
2022-12-18T10:06:07.358Z,100473.25
2022-12-18T10:08:55.617Z,100467.40
2022-12-18T10:11:51.968Z,100466.05
2022-12-18T10:14:33.583Z,100464.20
2022-12-18T10:17:19.333Z,100458.05
2022-12-18T10:20:20.161Z,100455.05
2022-12-18T10:23:09.438Z,100454.60
2022-12-18T10:25:37.117Z,100455.85
2022-12-18T10:28:16.392Z,100449.48
2022-12-18T10:30:44.661Z,100452.91
2022-12-18T10:33:17.508Z,100450.98
2022-12-18T10:35:47.183Z,100448.55
2022-12-18T10:38:14.724Z,100441.14
2022-12-18T10:40:53.775Z,100441.85
2022-12-18T10:43:36.084Z,100439.73
2022-12-18T10:46:09.818Z,100437.03
2022-12-18T10:48:58.673Z,100435.17
2022-12-18T10:51:38.506Z,100438.20
2022-12-18T10:54:16.681Z,100432.85
2022-12-18T10:56:45.326Z,100428.45
2022-12-18T10:59:17.396Z,100425.15
2022-12-18T11:01:53.532Z,100426.16
2022-12-18T11:04:24.676Z,100425.45
2022-12-18T11:07:12.789Z,100425.55
2022-12-18T11:09:41.656Z,100418.91
2022-12-18T11:12:20.849Z,100416.90
2022-12-18T11:14:51.697Z,100420.58
2022-12-18T11:17:40.108Z,100415.73
2022-12-18T11:20:40.914Z,100411.25
2022-12-18T11:23:14.317Z,100404.36
2022-12-18T11:25:52.879Z,100405.55
2022-12-18T11:28:37.118Z,100404.81
2022-12-18T11:31:27.314Z,100405.19
2022-12-18T11:34:27.512Z,100405.77
2022-12-18T11:36:48.877Z,100407.48
2022-12-18T11:39:41.848Z,100411.45
2022-12-18T11:42:23.262Z,100412.90
2022-12-18T11:45:00.520Z,100417.94
2022-12-18T11:47:51.916Z,100424.41
2022-12-18T11:50:25.454Z,100426.80
2022-12-18T11:52:57.501Z,100422.88
2022-12-18T11:55:41.042Z,100424.19
2022-12-18T11:58:14.527Z,100428.46
2022-12-18T12:00:58.235Z,100421.05
2022-12-18T12:03:41.236Z,100422.64
2022-12-18T12:06:30.943Z,100429.00
2022-12-18T12:09:19.075Z,100436.54
2022-12-18T12:12:17.431Z,100434.94
2022-12-18T12:15:04.936Z,100433.33
2022-12-18T12:18:11.635Z,100435.85
2022-12-18T12:21:03.992Z,100435.41
2022-12-18T12:24:01.079Z,100434.77
2022-12-18T12:26:39.959Z,100433.52
2022-12-18T12:29:29.599Z,100434.82
2022-12-18T12:32:18.568Z,100433.30
2022-12-18T12:35:19.862Z,100439.30
2022-12-18T12:37:56.164Z,100444.14
2022-12-18T12:43:48.058Z,100452.10
2022-12-18T12:46:22.852Z,100452.24
2022-12-18T12:48:57.793Z,100453.66
2022-12-18T12:51:34.644Z,100450.39
2022-12-18T12:54:06.383Z,100449.78
2022-12-18T12:56:47.984Z,100453.66
2022-12-18T12:59:29.253Z,100453.26
2022-12-18T13:02:18.817Z,100453.93
2022-12-18T13:05:34.651Z,100458.74
2022-12-18T13:08:11.448Z,100465.41
2022-12-18T13:10:44.972Z,100463.34
2022-12-18T13:13:18.289Z,100470.48
2022-12-18T13:16:07.491Z,100467.36
2022-12-18T13:18:36.221Z,100461.44
2022-12-18T13:21:20.214Z,100468.52
2022-12-18T13:23:47.850Z,100472.21
2022-12-18T13:26:21.926Z,100477.65
2022-12-18T13:28:55.312Z,100484.89
2022-12-18T13:31:41.776Z,100490.14
2022-12-18T13:34:28.397Z,100483.55
2022-12-18T13:37:40.597Z,100481.52
2022-12-18T13:40:45.628Z,100482.86
2022-12-18T13:43:24.882Z,100479.65
2022-12-18T13:46:01.619Z,100482.80
2022-12-18T13:48:32.367Z,100481.16
2022-12-18T13:51:00.563Z,100484.20
2022-12-18T13:53:33.989Z,100487.05
2022-12-18T13:56:03.668Z,100495.02
2022-12-18T13:58:32.000Z,100491.91
2022-12-18T14:00:59.782Z,100488.40
2022-12-18T14:03:29.581Z,100498.11
2022-12-18T14:06:02.144Z,100501.66
2022-12-18T14:08:43.039Z,100494.44
2022-12-18T14:11:23.301Z,100497.71
2022-12-18T14:13:51.558Z,100497.52
2022-12-18T14:16:19.416Z,100492.83
2022-12-18T14:18:55.017Z,100492.93
2022-12-18T14:21:27.598Z,100491.76
2022-12-18T14:24:20.112Z,100493.02
2022-12-18T14:26:50.521Z,100490.91
2022-12-18T14:29:24.977Z,100484.45
2022-12-18T14:32:17.755Z,100482.29
2022-12-18T14:34:53.807Z,100482.92
2022-12-18T14:37:26.918Z,100493.77
2022-12-18T14:39:55.190Z,100490.71
2022-12-18T14:42:23.561Z,100492.98
2022-12-18T14:45:12.873Z,100491.86
2022-12-18T14:47:38.895Z,100490.63
2022-12-18T14:50:14.981Z,100484.55
2022-12-18T14:52:42.639Z,100493.12
2022-12-18T14:55:21.381Z,100495.53
2022-12-18T14:57:55.873Z,100499.50
2022-12-18T15:00:26.459Z,100500.52
2022-12-18T15:02:56.505Z,100499.94
2022-12-18T15:05:30.337Z,100506.65
2022-12-18T15:08:00.560Z,100507.35
2022-12-18T15:10:34.684Z,100510.58
2022-12-18T15:13:02.712Z,100510.90
2022-12-18T15:15:50.295Z,100515.23
2022-12-18T15:18:43.052Z,100515.52
2022-12-18T15:21:17.238Z,100519.32
2022-12-18T15:23:45.057Z,100528.93
2022-12-18T15:26:15.484Z,100528.90
2022-12-18T15:28:49.935Z,100529.21
2022-12-18T15:31:17.999Z,100531.23
2022-12-18T15:34:02.213Z,100530.79
2022-12-18T15:36:30.302Z,100527.02
2022-12-18T15:39:04.206Z,100526.13
2022-12-18T15:41:36.026Z,100532.92
2022-12-18T15:44:24.084Z,100534.64
2022-12-18T15:46:51.835Z,100538.77
2022-12-18T15:49:19.764Z,100541.98
2022-12-18T15:51:55.060Z,100546.45
2022-12-18T15:54:23.526Z,100542.40
2022-12-18T15:56:51.121Z,100541.63
2022-12-18T15:59:21.310Z,100541.17
2022-12-18T16:01:51.647Z,100540.60
2022-12-18T16:04:22.152Z,100543.76
2022-12-18T16:07:13.732Z,100539.19
2022-12-18T16:09:40.029Z,100540.55
2022-12-18T16:12:16.462Z,100544.56
2022-12-18T16:14:44.388Z,100551.83
2022-12-18T16:17:13.980Z,100550.48
2022-12-18T16:19:41.795Z,100551.56
2022-12-18T16:22:21.435Z,100558.36
2022-12-18T16:24:49.914Z,100559.14
2022-12-18T16:27:17.816Z,100556.87
2022-12-18T16:29:46.072Z,100555.32
2022-12-18T16:32:18.715Z,100563.45
2022-12-18T16:34:47.366Z,100563.73
2022-12-18T16:37:16.367Z,100565.00
2022-12-18T16:39:44.773Z,100565.71
2022-12-18T16:42:20.833Z,100569.76
2022-12-18T16:44:50.418Z,100575.73
2022-12-18T16:47:19.300Z,100573.48
2022-12-18T16:49:46.874Z,100564.23
2022-12-18T16:52:14.949Z,100566.13
2022-12-18T16:54:42.900Z,100570.96
2022-12-18T16:57:15.739Z,100571.25
2022-12-18T16:59:43.759Z,100573.52
2022-12-18T17:02:23.406Z,100569.48
2022-12-18T17:04:57.503Z,100564.75
2022-12-18T17:07:26.586Z,100559.67
2022-12-18T17:09:54.674Z,100554.70
2022-12-18T17:12:22.514Z,100549.95
2022-12-18T17:14:50.598Z,100546.38
2022-12-18T17:17:21.885Z,100537.66
2022-12-18T17:19:51.642Z,100526.88
2022-12-18T17:22:20.919Z,100521.13
2022-12-18T17:24:48.475Z,100518.29
2022-12-18T17:27:16.419Z,100514.00
2022-12-18T17:29:47.886Z,100506.52
2022-12-18T17:32:17.261Z,100503.70
2022-12-18T17:34:45.218Z,100503.25
2022-12-18T17:37:13.393Z,100510.54
2022-12-18T17:39:41.414Z,100520.88
2022-12-18T17:42:09.013Z,100525.06
2022-12-18T17:44:38.605Z,100525.40
2022-12-18T17:47:07.196Z,100527.75
2022-12-18T17:49:34.863Z,100533.58
2022-12-18T17:52:02.425Z,100537.35
2022-12-18T17:54:30.375Z,100542.99
2022-12-18T17:56:57.932Z,100547.78
2022-12-18T17:59:25.475Z,100551.75
2022-12-18T18:01:53.221Z,100557.16
2022-12-18T18:04:21.565Z,100556.15
2022-12-18T18:06:49.209Z,100553.18
2022-12-18T18:09:54.829Z,100555.98
2022-12-18T18:13:00.308Z,100559.68
2022-12-18T18:15:54.755Z,100554.39
2022-12-18T18:18:22.751Z,100558.55
2022-12-18T18:20:53.999Z,100555.81
2022-12-18T18:23:22.137Z,100550.17
2022-12-18T18:25:49.910Z,100545.82
2022-12-18T18:28:17.800Z,100542.48
2022-12-18T18:30:45.515Z,100539.38
2022-12-18T18:33:13.161Z,100546.17
2022-12-18T18:35:53.922Z,100553.38
2022-12-18T18:38:22.043Z,100557.90
2022-12-18T18:41:01.159Z,100555.71
2022-12-18T18:43:29.827Z,100559.72
2022-12-18T18:45:59.042Z,100563.83
2022-12-18T18:48:28.757Z,100565.50
2022-12-18T18:51:07.279Z,100568.74
2022-12-18T18:53:40.220Z,100567.08
2022-12-18T18:58:56.814Z,100569.88
2022-12-18T19:01:25.840Z,100568.57
2022-12-18T19:03:54.407Z,100566.91
2022-12-18T19:06:25.497Z,100574.55
2022-12-18T19:08:53.955Z,100575.14
2022-12-18T19:11:24.461Z,100579.56
2022-12-18T19:13:52.876Z,100582.94
2022-12-18T19:16:20.576Z,100590.47
2022-12-18T19:18:50.437Z,100594.40
2022-12-18T19:21:18.318Z,100598.95
2022-12-18T19:23:45.870Z,100599.33
2022-12-18T19:26:27.842Z,100599.32
2022-12-18T19:29:07.122Z,100596.11
2022-12-18T19:31:36.955Z,100591.30
2022-12-18T19:34:06.413Z,100588.58
2022-12-18T19:36:36.904Z,100581.81
2022-12-18T19:39:15.945Z,100585.66
2022-12-18T19:41:44.460Z,100594.09
2022-12-18T19:44:14.770Z,100602.75
2022-12-18T19:46:43.073Z,100603.60
2022-12-18T19:49:11.977Z,100600.71
2022-12-18T19:51:46.802Z,100598.89
2022-12-18T19:54:17.241Z,100602.05
2022-12-18T19:56:46.387Z,100605.77
2022-12-18T19:59:15.656Z,100604.36
2022-12-18T20:01:43.538Z,100601.67
2022-12-18T20:04:11.604Z,100599.81
2022-12-18T20:06:48.387Z,100595.34
2022-12-18T20:09:17.039Z,100590.45
2022-12-18T20:11:45.772Z,100587.41
2022-12-18T20:14:18.753Z,100586.02
2022-12-18T20:16:51.869Z,100583.79
2022-12-18T20:19:20.758Z,100585.70
2022-12-18T20:21:48.715Z,100583.84
2022-12-18T20:24:16.690Z,100574.98
2022-12-18T20:26:44.450Z,100569.77
2022-12-18T20:29:12.020Z,100574.88
2022-12-18T20:31:40.319Z,100580.00
2022-12-18T20:34:08.296Z,100578.90
2022-12-18T20:36:37.672Z,100583.37
2022-12-18T20:39:09.847Z,100582.17
2022-12-18T20:41:39.331Z,100578.04
2022-12-18T20:44:23.090Z,100568.50
2022-12-18T20:46:54.341Z,100565.48
2022-12-18T20:49:23.613Z,100564.59
2022-12-18T20:51:55.746Z,100561.61
2022-12-18T20:54:26.460Z,100549.90
2022-12-18T20:56:54.795Z,100546.27
2022-12-18T20:59:23.263Z,100543.08
2022-12-18T21:01:51.722Z,100539.00
2022-12-18T21:04:19.923Z,100537.07
2022-12-18T21:06:52.334Z,100542.34
2022-12-18T21:09:23.869Z,100547.84
2022-12-18T21:11:51.621Z,100537.26
2022-12-18T21:14:25.961Z,100538.72
2022-12-18T21:16:54.558Z,100539.80
2022-12-18T21:19:25.092Z,100536.91
2022-12-18T21:21:54.571Z,100533.75
2022-12-18T21:24:22.905Z,100538.33
2022-12-18T21:26:51.756Z,100543.68
2022-12-18T21:29:22.887Z,100542.73
2022-12-18T21:31:53.948Z,100550.69
2022-12-18T21:34:26.975Z,100548.27
2022-12-18T21:36:58.103Z,100548.19
2022-12-18T21:39:29.148Z,100547.63
2022-12-18T21:41:57.684Z,100542.90
2022-12-18T21:44:25.910Z,100540.38
2022-12-18T21:46:59.807Z,100539.60
2022-12-18T21:49:31.554Z,100543.35
2022-12-18T21:52:00.616Z,100546.77
2022-12-18T21:54:29.428Z,100541.14
2022-12-18T21:56:59.272Z,100550.17
2022-12-18T21:59:36.505Z,100552.34
2022-12-18T22:02:07.519Z,100547.10
2022-12-18T22:04:35.455Z,100546.91
2022-12-18T22:07:05.329Z,100547.92
2022-12-18T22:09:33.783Z,100545.29
2022-12-18T22:12:02.393Z,100546.52
2022-12-18T22:14:29.922Z,100543.02
2022-12-18T22:16:57.722Z,100543.77
2022-12-18T22:19:26.409Z,100537.98
2022-12-18T22:21:55.023Z,100532.51
2022-12-18T22:24:25.380Z,100539.96
2022-12-18T22:26:54.847Z,100547.26
2022-12-18T22:29:30.017Z,100547.83
2022-12-18T22:31:59.919Z,100542.52
2022-12-18T22:34:28.040Z,100538.14
2022-12-18T22:36:55.968Z,100529.94
2022-12-18T22:39:27.275Z,100536.10
2022-12-18T22:41:57.824Z,100539.63
2022-12-18T22:44:25.452Z,100533.84
2022-12-18T22:47:05.425Z,100539.33
2022-12-18T22:49:35.871Z,100536.51
2022-12-18T22:52:06.213Z,100539.27
2022-12-18T22:54:34.254Z,100541.06
2022-12-18T22:57:02.140Z,100542.52
2022-12-18T22:59:30.992Z,100541.21
2022-12-18T23:01:59.592Z,100541.55
2022-12-18T23:04:27.967Z,100535.14
2022-12-18T23:06:58.765Z,100538.50
2022-12-18T23:09:26.508Z,100536.23
2022-12-18T23:11:54.289Z,100535.86
2022-12-18T23:14:22.478Z,100531.97
2022-12-18T23:16:50.767Z,100531.80
2022-12-18T23:19:23.431Z,100532.04
2022-12-18T23:21:51.811Z,100529.60
2022-12-18T23:24:22.204Z,100524.44
2022-12-18T23:26:49.758Z,100527.15
2022-12-18T23:29:17.345Z,100527.71
2022-12-18T23:31:45.224Z,100535.08
2022-12-18T23:34:14.579Z,100531.29
2022-12-18T23:36:46.251Z,100530.17
2022-12-18T23:39:28.608Z,100526.00
2022-12-18T23:42:00.713Z,100525.95
2022-12-18T23:44:28.503Z,100527.11
2022-12-18T23:46:56.138Z,100520.70
2022-12-18T23:49:24.077Z,100524.52
2022-12-18T23:51:54.213Z,100526.52
2022-12-18T23:54:22.410Z,100521.38
2022-12-18T23:56:55.354Z,100514.39
2022-12-18T23:59:25.577Z,100515.23
